createdAt,value
2022-08-18T00:03:00.510Z,19.29
2022-08-18T00:08:08.664Z,19.29
2022-08-18T00:13:12.399Z,19.29
2022-08-18T00:18:16.186Z,19.29
2022-08-18T00:23:21.589Z,19.27
2022-08-18T00:28:25.324Z,19.23
2022-08-18T00:33:29.157Z,19.25
2022-08-18T00:38:36.160Z,19.26
2022-08-18T00:43:44.127Z,19.27
2022-08-18T00:48:49.507Z,19.18
2022-08-18T00:54:00.606Z,19.21
2022-08-18T00:59:10.221Z,19.26
2022-08-18T01:04:27.157Z,19.24
2022-08-18T01:09:32.369Z,19.28
2022-08-18T01:14:36.113Z,19.28
2022-08-18T01:20:00.041Z,19.31
2022-08-18T01:25:26.527Z,19.30
2022-08-18T01:30:32.550Z,19.29
2022-08-18T01:35:41.596Z,19.28
2022-08-18T01:41:25.074Z,19.26
2022-08-18T01:46:11.982Z,19.20
2022-08-18T01:51:17.862Z,19.10
2022-08-18T01:56:22.972Z,19.04
2022-08-18T02:01:36.358Z,18.97
2022-08-18T02:06:42.381Z,18.91
2022-08-18T02:11:56.624Z,18.83
2022-08-18T02:17:02.918Z,18.76
2022-08-18T02:22:11.344Z,18.72
2022-08-18T02:27:18.792Z,18.67
2022-08-18T02:32:22.566Z,18.66
2022-08-18T02:37:27.850Z,18.63
2022-08-18T02:42:35.073Z,18.55
2022-08-18T02:47:39.729Z,18.49
2022-08-18T02:52:43.501Z,18.44
2022-08-18T02:57:48.966Z,18.42
2022-08-18T03:02:53.448Z,18.37
2022-08-18T03:07:57.268Z,18.32
2022-08-18T03:13:02.625Z,18.28
2022-08-18T03:18:06.613Z,18.26
2022-08-18T03:23:11.786Z,18.19
2022-08-18T03:28:18.691Z,18.18
2022-08-18T03:33:22.864Z,18.12
2022-08-18T03:38:26.556Z,18.08
2022-08-18T03:43:51.142Z,18.06
2022-08-18T03:48:58.721Z,18.02
2022-08-18T03:54:04.121Z,18.02
2022-08-18T03:59:12.887Z,17.96
2022-08-18T04:04:19.114Z,17.93
2022-08-18T04:09:25.501Z,17.89
2022-08-18T04:14:31.608Z,17.85
2022-08-18T04:19:35.939Z,17.83
2022-08-18T04:24:39.807Z,17.79
2022-08-18T04:29:46.283Z,17.77
2022-08-18T04:34:50.364Z,17.76
2022-08-18T04:39:54.099Z,17.73
2022-08-18T04:44:59.220Z,17.68
2022-08-18T04:50:03.427Z,17.69
2022-08-18T04:55:08.432Z,17.72
2022-08-18T05:00:14.095Z,17.71
2022-08-18T05:05:18.091Z,17.71
2022-08-18T05:10:21.770Z,17.73
2022-08-18T05:15:26.877Z,17.73
2022-08-18T05:20:30.563Z,17.74
2022-08-18T05:25:34.260Z,17.79
2022-08-18T05:30:40.466Z,17.78
2022-08-18T05:35:47.120Z,17.79
2022-08-18T05:41:13.907Z,17.79
2022-08-18T05:46:21.779Z,17.81
2022-08-18T05:51:32.157Z,17.82
2022-08-18T05:56:48.479Z,17.88
2022-08-18T06:02:00.005Z,17.93
2022-08-18T06:07:06.590Z,18.02
2022-08-18T06:12:20.433Z,18.06
2022-08-18T06:17:52.353Z,18.16
2022-08-18T06:23:04.549Z,18.22
2022-08-18T06:28:13.179Z,18.27
2022-08-18T06:33:35.140Z,18.36
2022-08-18T06:38:48.972Z,18.46
2022-08-18T06:44:00.184Z,18.52
2022-08-18T06:49:08.793Z,18.62
2022-08-18T06:54:28.487Z,18.70
2022-08-18T06:59:34.285Z,18.78
2022-08-18T07:04:43.272Z,18.87
2022-08-18T07:09:48.602Z,18.95
2022-08-18T07:14:55.180Z,19.06
2022-08-18T07:20:03.177Z,19.16
2022-08-18T07:25:07.338Z,19.27
2022-08-18T07:30:15.447Z,19.37
2022-08-18T07:35:25.318Z,19.45
2022-08-18T07:40:34.919Z,19.54
2022-08-18T07:45:44.426Z,19.65
2022-08-18T07:51:00.793Z,19.77
2022-08-18T07:56:17.108Z,19.81
2022-08-18T08:01:29.723Z,20.02
2022-08-18T08:06:55.535Z,20.19
2022-08-18T08:12:26.414Z,20.36
2022-08-18T08:17:34.298Z,20.52
2022-08-18T08:22:55.777Z,20.54
2022-08-18T08:28:11.668Z,20.60
2022-08-18T08:33:25.689Z,20.70
2022-08-18T08:38:44.473Z,20.95
2022-08-18T08:43:55.848Z,21.11
2022-08-18T08:49:07.188Z,21.20
2022-08-18T08:54:20.420Z,21.34
2022-08-18T08:59:25.692Z,21.42
2022-08-18T09:04:54.120Z,21.67
2022-08-18T09:10:25.314Z,21.89
2022-08-18T09:15:58.481Z,22.05
2022-08-18T09:21:18.522Z,22.07
2022-08-18T09:26:27.862Z,22.22
2022-08-18T09:31:32.311Z,22.45
2022-08-18T09:36:49.009Z,22.78
2022-08-18T09:41:57.484Z,22.80
2022-08-18T09:47:01.712Z,22.86
2022-08-18T09:52:54.910Z,23.72
2022-08-18T10:03:31.411Z,26.36
2022-08-18T10:09:26.972Z,26.36
2022-08-18T10:15:33.146Z,25.89
2022-08-18T10:20:50.342Z,25.94
2022-08-18T10:25:55.293Z,25.69
2022-08-18T10:36:42.014Z,26.24
2022-08-18T10:42:04.689Z,27.26
2022-08-18T10:47:12.321Z,27.91
2022-08-18T10:52:47.231Z,28.60
2022-08-18T10:58:16.911Z,28.33
2022-08-18T11:03:52.246Z,27.95
2022-08-18T11:09:02.487Z,27.47
2022-08-18T11:14:20.114Z,26.97
2022-08-18T11:19:24.681Z,26.34
2022-08-18T11:24:32.076Z,26.06
2022-08-18T11:29:37.903Z,25.75
2022-08-18T11:34:52.056Z,25.82
2022-08-18T11:40:00.614Z,25.88
2022-08-18T11:45:12.094Z,26.07
2022-08-18T11:50:27.054Z,26.19
2022-08-18T11:55:34.526Z,26.18
2022-08-18T12:00:44.155Z,26.03
2022-08-18T12:11:27.259Z,26.71
2022-08-18T12:16:37.788Z,28.50
2022-08-18T12:21:43.284Z,27.93
2022-08-18T12:26:52.157Z,27.39
2022-08-18T12:31:57.666Z,27.94
2022-08-18T12:37:02.314Z,27.65
2022-08-18T12:42:15.816Z,27.97
2022-08-18T12:47:21.964Z,28.02
2022-08-18T12:52:25.869Z,27.55
2022-08-18T12:57:52.345Z,27.41
2022-08-18T13:02:54.929Z,27.33
2022-08-18T13:08:04.364Z,27.03
2022-08-18T13:13:09.934Z,26.93
2022-08-18T13:18:14.579Z,26.84
2022-08-18T13:23:24.048Z,26.57
2022-08-18T13:28:33.580Z,26.51
2022-08-18T13:33:56.717Z,26.39
2022-08-18T13:39:03.909Z,26.18
2022-08-18T13:44:09.339Z,26.17
2022-08-18T13:49:18.517Z,25.86
2022-08-18T13:54:31.658Z,26.17
2022-08-18T13:59:46.693Z,26.61
2022-08-18T14:04:51.795Z,26.80
2022-08-18T14:09:55.901Z,27.11
2022-08-18T14:15:01.277Z,27.04
2022-08-18T14:20:27.351Z,27.39
2022-08-18T14:25:49.104Z,28.29
2022-08-18T14:30:55.278Z,28.09
2022-08-18T14:36:06.678Z,27.97
2022-08-18T14:41:15.775Z,27.91
2022-08-18T14:51:27.136Z,30.52
2022-08-18T14:56:33.388Z,31.36
2022-08-18T15:01:44.079Z,31.83
2022-08-18T15:06:56.389Z,32.31
2022-08-18T15:12:01.380Z,32.56
2022-08-18T15:17:11.878Z,32.95
2022-08-18T15:22:35.901Z,33.15
2022-08-18T15:27:42.759Z,33.30
2022-08-18T15:32:50.500Z,32.86
2022-08-18T15:37:55.261Z,32.80
2022-08-18T15:43:02.294Z,32.19
2022-08-18T15:48:08.140Z,32.43
2022-08-18T15:53:13.379Z,31.86
2022-08-18T15:58:22.441Z,30.34
2022-08-18T16:03:27.701Z,30.19
2022-08-18T16:08:33.024Z,29.87
2022-08-18T16:13:37.057Z,29.79
2022-08-18T16:18:42.294Z,29.97
2022-08-18T16:23:48.250Z,29.63
2022-08-18T16:28:53.409Z,29.12
2022-08-18T16:33:59.335Z,28.75
2022-08-18T16:39:03.259Z,28.36
2022-08-18T16:44:07.272Z,28.38
2022-08-18T16:49:12.464Z,28.63
2022-08-18T16:54:16.442Z,28.83
2022-08-18T16:59:37.709Z,28.65
2022-08-18T17:04:42.788Z,28.42
2022-08-18T17:09:46.607Z,28.26
2022-08-18T17:14:52.126Z,28.11
2022-08-18T17:19:57.335Z,27.83
2022-08-18T17:25:03.506Z,27.79
2022-08-18T17:30:12.673Z,27.58
2022-08-18T17:35:23.535Z,27.62
2022-08-18T17:40:39.148Z,27.39
2022-08-18T17:45:45.571Z,27.24
2022-08-18T17:51:26.035Z,27.06
2022-08-18T17:56:36.606Z,26.90
2022-08-18T18:01:43.304Z,26.60
2022-08-18T18:06:49.638Z,26.52
2022-08-18T18:11:53.415Z,26.33
2022-08-18T18:17:02.843Z,26.12
2022-08-18T18:22:11.096Z,26.06
2022-08-18T18:27:27.712Z,25.87
2022-08-18T18:32:34.527Z,25.79
2022-08-18T18:37:47.615Z,25.68
2022-08-18T18:42:51.673Z,25.51
2022-08-18T18:48:05.457Z,25.35
2022-08-18T18:53:29.054Z,25.22
2022-08-18T18:58:44.295Z,24.99
2022-08-18T19:03:58.960Z,24.74
2022-08-18T19:09:13.722Z,24.72
2022-08-18T19:14:25.096Z,24.52
2022-08-18T19:19:36.996Z,24.38
2022-08-18T19:24:53.513Z,24.24
2022-08-18T19:30:01.381Z,24.10
2022-08-18T19:35:12.283Z,24.00
2022-08-18T19:40:22.793Z,23.82
2022-08-18T19:45:34.434Z,23.70
2022-08-18T19:50:43.383Z,23.61
2022-08-18T19:56:04.622Z,23.58
2022-08-18T20:01:20.857Z,23.45
2022-08-18T20:06:45.866Z,23.31
2022-08-18T20:12:03.495Z,23.14
2022-08-18T20:17:16.879Z,23.04
2022-08-18T20:22:36.049Z,22.95
2022-08-18T20:27:43.158Z,22.81
2022-08-18T20:33:08.642Z,22.74
2022-08-18T20:38:22.359Z,22.59
2022-08-18T20:43:32.114Z,22.49
2022-08-18T20:48:48.481Z,22.38
2022-08-18T20:54:03.751Z,22.28
2022-08-18T20:59:22.596Z,22.19
2022-08-18T21:04:51.971Z,22.08
2022-08-18T21:10:00.406Z,21.95
2022-08-18T21:15:17.713Z,21.88
2022-08-18T21:20:25.203Z,21.80
2022-08-18T21:25:29.045Z,21.72
2022-08-18T21:30:34.387Z,21.63
2022-08-18T21:35:39.402Z,21.52
2022-08-18T21:40:47.948Z,21.45
2022-08-18T21:45:59.296Z,21.38
2022-08-18T21:51:03.179Z,21.28
2022-08-18T21:56:08.847Z,21.20
2022-08-18T22:01:21.841Z,21.12
2022-08-18T22:06:35.876Z,21.05
2022-08-18T22:12:01.750Z,21.00
2022-08-18T22:17:42.067Z,20.93
2022-08-18T22:23:00.091Z,20.86
2022-08-18T22:28:04.087Z,20.79
2022-08-18T22:33:09.200Z,20.70
2022-08-18T22:38:15.563Z,20.66
2022-08-18T22:43:19.486Z,20.59
2022-08-18T22:48:25.551Z,20.50
2022-08-18T22:53:30.093Z,20.50
2022-08-18T22:58:33.954Z,20.40
2022-08-18T23:03:42.387Z,20.30
2022-08-18T23:08:54.732Z,20.25
2022-08-18T23:14:01.093Z,20.17
2022-08-18T23:19:06.299Z,20.13
2022-08-18T23:24:11.970Z,20.06
2022-08-18T23:29:16.328Z,20.00
2022-08-18T23:34:23.943Z,19.96
2022-08-18T23:39:29.359Z,19.93
2022-08-18T23:44:33.563Z,19.89
2022-08-18T23:49:38.944Z,19.82
2022-08-18T23:54:42.815Z,19.80
2022-08-18T23:59:46.595Z,19.75
